Time;durP1;ratioP1;P1;durP2;ratioP2;P2;SDS_P1;SDS_P2;PMS_P1;PMS_P2;Temp;Humidity;BMP_temperature;BMP_pressure;BME280_temperature;BME280_humidity;BME280_pressure;Samples;Min_cycle;Max_cycle;Signal;HPM_P1;HPM_P2
2022/08/06 00:01:47;;;;;;;4.50;1.53;;;;;;;;;;5075212;28;20569;-77
2022/08/06 00:04:13;;;;;;;2.70;1.60;;;;;;;;;;5075679;28;20503;-78
2022/08/06 00:06:39;;;;;;;3.77;1.93;;;;;;;;;;5075731;28;20843;-76
2022/08/06 00:09:05;;;;;;;6.63;1.70;;;;;;;;;;5075722;28;20416;-77
2022/08/06 00:11:31;;;;;;;5.50;1.70;;;;;;;;;;5075310;28;20479;-76
2022/08/06 00:13:56;;;;;;;3.03;1.70;;;;;;;;;;5075979;28;20474;-79
2022/08/06 00:16:22;;;;;;;3.40;1.80;;;;;;;;;;5075537;28;20422;-77
2022/08/06 00:18:48;;;;;;;4.03;1.80;;;;;;;;;;5075177;28;20442;-76
2022/08/06 00:21:15;;;;;;;8.63;1.90;;;;;;;;;;5074995;28;20462;-78
2022/08/06 00:23:41;;;;;;;4.30;1.90;;;;;;;;;;5075542;28;20430;-77
2022/08/06 00:26:07;;;;;;;2.20;1.67;;;;;;;;;;5075661;28;20426;-78
2022/08/06 00:28:33;;;;;;;4.47;1.90;;;;;;;;;;5075425;28;20415;-75
2022/08/06 00:31:00;;;;;;;3.73;1.73;;;;;;;;;;5075036;28;20476;-76
2022/08/06 00:33:26;;;;;;;4.20;1.80;;;;;;;;;;5075325;28;20832;-76
2022/08/06 00:35:52;;;;;;;8.27;1.70;;;;;;;;;;5075332;28;20567;-78
2022/08/06 00:38:18;;;;;;;3.90;2.27;;;;;;;;;;5075307;28;20860;-77
2022/08/06 00:40:44;;;;;;;3.47;1.90;;;;;;;;;;5074821;28;20440;-77
2022/08/06 00:43:09;;;;;;;5.77;2.40;;;;;;;;;;5075069;28;20511;-78
2022/08/06 00:45:36;;;;;;;2.57;1.67;;;;;;;;;;5075086;28;20764;-78
2022/08/06 00:48:02;;;;;;;3.10;1.83;;;;;;;;;;5075025;28;20384;-77
2022/08/06 00:50:28;;;;;;;5.90;1.93;;;;;;;;;;5074554;28;20424;-78
2022/08/06 00:52:54;;;;;;;12.83;2.47;;;;;;;;;;5074838;28;20455;-78
2022/08/06 00:55:20;;;;;;;4.57;2.00;;;;;;;;;;5074724;28;20418;-77
2022/08/06 00:57:46;;;;;;;8.23;2.30;;;;;;;;;;5074721;28;20539;-78
2022/08/06 01:00:13;;;;;;;5.00;2.20;;;;;;;;;;5074246;28;20436;-76
2022/08/06 01:02:39;;;;;;;4.40;2.37;;;;;;;;;;5074540;28;20767;-77
2022/08/06 01:05:06;;;;;;;5.97;2.33;;;;;;;;;;5074726;28;20758;-76
2022/08/06 01:07:32;;;;;;;4.33;2.33;;;;;;;;;;5074591;28;20408;-77
2022/08/06 01:09:58;;;;;;;6.90;2.30;;;;;;;;;;5074254;28;20433;-77
2022/08/06 01:12:24;;;;;;;3.53;1.80;;;;;;;;;;5074574;28;20463;-78
2022/08/06 01:14:50;;;;;;;5.63;1.90;;;;;;;;;;5074484;28;20424;-79
2022/08/06 01:17:24;;;;;;;2.90;2.20;;;;;;;;;;5074460;28;20878;-77
2022/08/06 01:19:57;;;;;;;5.43;2.00;;;;;;;;;;5073927;28;20404;-77
2022/08/06 01:22:23;;;;;;;6.80;1.93;;;;;;;;;;5074291;28;21061;-77
2022/08/06 01:25:07;;;;;;;8.40;2.10;;;;;;;;;;5074170;28;20484;-77
2022/08/06 01:27:36;;;;;;;8.73;2.50;;;;;;;;;;5074139;28;20420;-76
2022/08/06 01:30:07;;;;;;;5.00;2.10;;;;;;;;;;5073701;28;20460;-78
2022/08/06 01:32:46;;;;;;;3.20;2.13;;;;;;;;;;5073619;28;20379;-76
2022/08/06 01:35:17;;;;;;;3.20;1.77;;;;;;;;;;5073929;28;20414;-77
2022/08/06 01:37:49;;;;;;;3.20;2.07;;;;;;;;;;5074206;28;20374;-77
2022/08/06 01:40:18;;;;;;;3.00;2.30;;;;;;;;;;5073755;28;20850;-78
2022/08/06 01:42:44;;;;;;;4.20;1.90;;;;;;;;;;5073811;28;20542;-78
2022/08/06 01:45:12;;;;;;;3.40;2.10;;;;;;;;;;5073805;28;20764;-77
2022/08/06 01:47:39;;;;;;;5.30;2.07;;;;;;;;;;5073779;28;20407;-76
2022/08/06 01:50:08;;;;;;;4.93;2.60;;;;;;;;;;5073370;28;20477;-77
2022/08/06 01:52:37;;;;;;;4.67;2.50;;;;;;;;;;5073626;28;20760;-79
2022/08/06 01:55:04;;;;;;;3.97;2.03;;;;;;;;;;5073544;28;20421;-79
2022/08/06 01:57:32;;;;;;;6.03;2.80;;;;;;;;;;5072303;28;20920;-78
2022/08/06 01:59:58;;;;;;;5.40;2.23;;;;;;;;;;5073224;28;20524;-78
2022/08/06 02:02:27;;;;;;;3.07;2.30;;;;;;;;;;5073278;28;20470;-77
2022/08/06 02:04:54;;;;;;;5.43;2.17;;;;;;;;;;5073311;28;20477;-77
2022/08/06 02:07:36;;;;;;;7.13;2.43;;;;;;;;;;5073176;28;20792;-78
2022/08/06 02:10:05;;;;;;;6.60;2.27;;;;;;;;;;5073348;28;20436;-77
2022/08/06 02:12:32;;;;;;;8.33;2.90;;;;;;;;;;5073324;28;20453;-77
2022/08/06 02:14:58;;;;;;;7.43;2.47;;;;;;;;;;5073292;28;20742;-78
2022/08/06 02:17:25;;;;;;;4.60;2.30;;;;;;;;;;5073378;28;20498;-78
2022/08/06 02:19:52;;;;;;;2.93;1.93;;;;;;;;;;5072904;28;20408;-78
2022/08/06 02:22:19;;;;;;;6.60;2.47;;;;;;;;;;5073358;28;20875;-79
2022/08/06 02:24:46;;;;;;;3.37;2.67;;;;;;;;;;5073438;28;20412;-78
2022/08/06 02:27:13;;;;;;;3.70;2.70;;;;;;;;;;5073260;28;20419;-76
2022/08/06 02:29:40;;;;;;;5.40;2.60;;;;;;;;;;5072947;28;20409;-77
2022/08/06 02:32:06;;;;;;;3.20;2.07;;;;;;;;;;5073272;28;20939;-76
2022/08/06 02:34:32;;;;;;;3.23;2.20;;;;;;;;;;5073256;28;20416;-77
2022/08/06 02:37:13;;;;;;;4.43;2.77;;;;;;;;;;5073011;28;21015;-77
2022/08/06 02:39:49;;;;;;;3.63;2.37;;;;;;;;;;5072573;28;20416;-78
2022/08/06 02:42:21;;;;;;;7.63;2.67;;;;;;;;;;5072873;28;20804;-78
2022/08/06 02:44:58;;;;;;;4.50;2.40;;;;;;;;;;5073167;28;20411;-77
2022/08/06 02:47:36;;;;;;;3.40;2.70;;;;;;;;;;5073019;28;20473;-77
2022/08/06 02:50:04;;;;;;;5.22;3.13;;;;;;;;;;5072677;28;20189;-78
2022/08/06 02:52:40;;;;;;;4.33;2.70;;;;;;;;;;5073077;28;20211;-77
2022/08/06 02:55:14;;;;;;;8.13;3.80;;;;;;;;;;5072938;28;20403;-76
2022/08/06 02:57:42;;;;;;;5.60;2.60;;;;;;;;;;5072843;28;20523;-79
2022/08/06 03:00:09;;;;;;;7.80;2.80;;;;;;;;;;5072594;28;20512;-77
2022/08/06 03:02:36;;;;;;;5.93;2.70;;;;;;;;;;5072819;28;20465;-79
2022/08/06 03:05:04;;;;;;;6.13;3.00;;;;;;;;;;5072926;28;20408;-77
2022/08/06 03:07:31;;;;;;;4.30;2.87;;;;;;;;;;5072577;28;20201;-78
2022/08/06 03:09:58;;;;;;;3.70;3.00;;;;;;;;;;5072755;28;20421;-79
2022/08/06 03:12:25;;;;;;;4.32;3.03;;;;;;;;;;5072935;28;20412;-77
2022/08/06 03:14:52;;;;;;;13.63;3.40;;;;;;;;;;5072759;28;20181;-77
2022/08/06 03:17:18;;;;;;;13.10;3.47;;;;;;;;;;5072881;28;20465;-79
2022/08/06 03:19:45;;;;;;;6.97;3.72;;;;;;;;;;5072414;28;20273;-76
2022/08/06 03:22:12;;;;;;;4.18;2.90;;;;;;;;;;5072665;28;20546;-79
2022/08/06 03:24:39;;;;;;;6.15;2.90;;;;;;;;;;5071441;28;20181;-77
2022/08/06 03:27:06;;;;;;;7.13;2.78;;;;;;;;;;5072758;28;20181;-77
2022/08/06 03:29:33;;;;;;;4.38;2.88;;;;;;;;;;5072288;28;20509;-78
2022/08/06 03:32:00;;;;;;;6.67;2.97;;;;;;;;;;5072622;28;20177;-76
2022/08/06 03:34:27;;;;;;;5.00;3.30;;;;;;;;;;5072574;28;20472;-77
2022/08/06 03:36:53;;;;;;;4.18;2.63;;;;;;;;;;5072788;28;20169;-79
2022/08/06 03:39:19;;;;;;;5.47;2.95;;;;;;;;;;5072739;28;20173;-77
2022/08/06 03:41:46;;;;;;;6.25;3.35;;;;;;;;;;5071998;28;20779;-77
2022/08/06 03:44:12;;;;;;;5.72;3.35;;;;;;;;;;5072635;28;20178;-77
2022/08/06 03:46:41;;;;;;;9.77;3.00;;;;;;;;;;5072566;28;20181;-76
2022/08/06 03:49:10;;;;;;;6.10;3.20;;;;;;;;;;5072520;28;20400;-78
2022/08/06 03:51:38;;;;;;;6.32;2.80;;;;;;;;;;5072008;28;20434;-78
2022/08/06 03:54:05;;;;;;;7.32;3.38;;;;;;;;;;5072870;28;20181;-76
2022/08/06 03:56:33;;;;;;;5.95;3.08;;;;;;;;;;5075993;28;20203;-78
2022/08/06 03:59:02;;;;;;;8.82;3.15;;;;;;;;;;5074739;28;20172;-78
2022/08/06 04:01:28;;;;;;;6.22;2.95;;;;;;;;;;5075284;28;20212;-78
2022/08/06 04:03:54;;;;;;;8.65;3.55;;;;;;;;;;5075682;28;20265;-80
2022/08/06 04:06:21;;;;;;;6.22;3.45;;;;;;;;;;5075846;28;20629;-78
2022/08/06 04:08:48;;;;;;;4.65;3.10;;;;;;;;;;5075754;28;20226;-78
2022/08/06 04:11:16;;;;;;;7.40;3.13;;;;;;;;;;5075395;28;20596;-78
2022/08/06 04:13:43;;;;;;;5.38;2.97;;;;;;;;;;5076075;28;20516;-76
2022/08/06 04:16:11;;;;;;;5.88;3.97;;;;;;;;;;5075521;28;20230;-76
2022/08/06 04:18:38;;;;;;;5.78;3.15;;;;;;;;;;5075528;28;20179;-78
2022/08/06 04:21:09;;;;;;;3.50;3.03;;;;;;;;;;5075120;28;20193;-77
2022/08/06 04:23:37;;;;;;;6.97;3.80;;;;;;;;;;5074245;28;20181;-78
2022/08/06 04:26:04;;;;;;;5.43;3.60;;;;;;;;;;5075616;28;20416;-80
2022/08/06 04:28:31;;;;;;;7.28;3.60;;;;;;;;;;5075634;28;20165;-78
2022/08/06 04:30:58;;;;;;;5.78;3.50;;;;;;;;;;5075071;28;20189;-76
2022/08/06 04:33:25;;;;;;;6.55;2.90;;;;;;;;;;5075377;28;20189;-76
2022/08/06 04:35:52;;;;;;;5.93;3.75;;;;;;;;;;5075406;28;20186;-78
2022/08/06 04:38:19;;;;;;;9.30;4.10;;;;;;;;;;5074126;28;20186;-78
2022/08/06 04:40:45;;;;;;;4.63;3.30;;;;;;;;;;5074778;28;20205;-77
2022/08/06 04:43:12;;;;;;;11.25;4.07;;;;;;;;;;5075132;28;20528;-76
2022/08/06 04:45:38;;;;;;;6.22;3.55;;;;;;;;;;5075022;28;20178;-78
2022/08/06 04:48:06;;;;;;;8.52;3.70;;;;;;;;;;5074969;28;20532;-77
2022/08/06 04:50:32;;;;;;;7.32;3.47;;;;;;;;;;5074618;28;20189;-78
2022/08/06 04:53:07;;;;;;;7.33;3.70;;;;;;;;;;5075013;28;20253;-76
2022/08/06 04:55:33;;;;;;;7.43;4.20;;;;;;;;;;5074903;28;20424;-80
2022/08/06 04:57:59;;;;;;;5.27;3.70;;;;;;;;;;5074760;28;20178;-79
2022/08/06 05:00:25;;;;;;;5.60;3.80;;;;;;;;;;5074279;28;20777;-79
2022/08/06 05:02:51;;;;;;;8.13;3.42;;;;;;;;;;5074691;28;20572;-77
2022/08/06 05:05:20;;;;;;;7.90;4.10;;;;;;;;;;5074554;28;20260;-78
2022/08/06 05:07:47;;;;;;;4.20;3.90;;;;;;;;;;5074606;28;20169;-78
2022/08/06 05:10:13;;;;;;;5.70;3.67;;;;;;;;;;5074136;28;20220;-78
2022/08/06 05:12:42;;;;;;;7.97;4.67;;;;;;;;;;5074328;28;20204;-76
2022/08/06 05:15:11;;;;;;;6.25;3.78;;;;;;;;;;5074613;28;20411;-77
2022/08/06 05:17:43;;;;;;;6.47;4.63;;;;;;;;;;5074457;28;20169;-76
2022/08/06 05:20:15;;;;;;;7.95;4.20;;;;;;;;;;5074165;28;20427;-77
2022/08/06 05:22:42;;;;;;;8.07;4.72;;;;;;;;;;5074384;28;20556;-75
2022/08/06 05:25:08;;;;;;;7.22;5.05;;;;;;;;;;5074380;28;20173;-76
2022/08/06 05:27:34;;;;;;;7.75;4.82;;;;;;;;;;5074324;28;20202;-75
2022/08/06 05:30:01;;;;;;;8.67;4.40;;;;;;;;;;5073831;28;20200;-77
2022/08/06 05:32:27;;;;;;;5.33;4.83;;;;;;;;;;5074073;28;20469;-75
2022/08/06 05:34:53;;;;;;;6.40;4.47;;;;;;;;;;5073927;28;20818;-77
2022/08/06 05:37:19;;;;;;;9.37;5.43;;;;;;;;;;5074127;28;20506;-76
2022/08/06 05:39:45;;;;;;;11.23;5.03;;;;;;;;;;5073658;28;20413;-76
2022/08/06 05:42:12;;;;;;;11.80;5.40;;;;;;;;;;5073957;28;20459;-76
2022/08/06 05:44:38;;;;;;;7.03;5.23;;;;;;;;;;5073944;28;20414;-76
2022/08/06 05:47:15;;;;;;;8.90;5.50;;;;;;;;;;5072650;28;20510;-77
2022/08/06 05:49:41;;;;;;;7.77;5.77;;;;;;;;;;5073610;28;20412;-76
2022/08/06 05:52:19;;;;;;;5.77;5.27;;;;;;;;;;5073816;28;20417;-75
2022/08/06 05:55:03;;;;;;;8.90;5.53;;;;;;;;;;5073578;28;20418;-78
2022/08/06 05:57:37;;;;;;;21.53;6.70;;;;;;;;;;5073769;28;20416;-78
2022/08/06 06:00:09;;;;;;;13.77;6.17;;;;;;;;;;5073323;28;20790;-78
2022/08/06 06:02:36;;;;;;;6.13;5.57;;;;;;;;;;5073480;28;20561;-79
2022/08/06 06:05:02;;;;;;;12.30;5.50;;;;;;;;;;5073422;28;20414;-78
2022/08/06 06:07:29;;;;;;;11.77;5.20;;;;;;;;;;5073427;28;20412;-76
2022/08/06 06:09:55;;;;;;;7.77;5.37;;;;;;;;;;5073043;28;20469;-76
2022/08/06 06:12:22;;;;;;;10.03;5.70;;;;;;;;;;5073483;28;20419;-77
2022/08/06 06:14:49;;;;;;;9.43;6.27;;;;;;;;;;5073424;28;20413;-77
2022/08/06 06:17:15;;;;;;;16.63;5.87;;;;;;;;;;5072941;28;20441;-75
2022/08/06 06:19:49;;;;;;;10.97;5.40;;;;;;;;;;5072919;28;20415;-76
2022/08/06 06:22:16;;;;;;;9.27;5.60;;;;;;;;;;5073349;28;20820;-75
2022/08/06 06:24:54;;;;;;;10.60;5.97;;;;;;;;;;5073315;28;20437;-76
2022/08/06 06:27:26;;;;;;;9.07;5.63;;;;;;;;;;5073225;28;20405;-75
2022/08/06 06:29:52;;;;;;;8.20;5.90;;;;;;;;;;5072962;28;20723;-77
2022/08/06 06:32:25;;;;;;;12.10;6.17;;;;;;;;;;5073497;28;20416;-77
2022/08/06 06:34:51;;;;;;;10.80;6.10;;;;;;;;;;5072076;28;20917;-76
2022/08/06 06:37:20;;;;;;;8.53;5.57;;;;;;;;;;5073285;28;20442;-75
2022/08/06 06:40:01;;;;;;;13.87;5.90;;;;;;;;;;5072912;28;20403;-75
2022/08/06 06:42:35;;;;;;;10.53;5.40;;;;;;;;;;5073148;28;20439;-77
2022/08/06 06:45:19;;;;;;;6.87;5.23;;;;;;;;;;5073136;28;20893;-79
2022/08/06 06:48:04;;;;;;;14.33;6.40;;;;;;;;;;5071739;28;20425;-76
2022/08/06 06:50:32;;;;;;;10.63;5.33;;;;;;;;;;5072675;28;20786;-76
2022/08/06 06:52:58;;;;;;;13.00;5.80;;;;;;;;;;5072925;28;20735;-75
2022/08/06 06:55:24;;;;;;;12.13;5.87;;;;;;;;;;5072920;28;20434;-79
2022/08/06 06:57:53;;;;;;;9.17;4.70;;;;;;;;;;5072989;28;20949;-77
2022/08/06 07:00:19;;;;;;;11.43;5.17;;;;;;;;;;5072396;28;20950;-76
2022/08/06 07:02:48;;;;;;;12.13;5.67;;;;;;;;;;5072821;28;20605;-76
2022/08/06 07:05:14;;;;;;;6.97;4.27;;;;;;;;;;5072712;28;20753;-75
2022/08/06 07:07:41;;;;;;;10.00;4.03;;;;;;;;;;5072729;28;20415;-76
2022/08/06 07:10:09;;;;;;;7.23;4.17;;;;;;;;;;5072451;28;20799;-75
2022/08/06 07:12:36;;;;;;;10.60;4.03;;;;;;;;;;5072790;28;20386;-75
2022/08/06 07:15:04;;;;;;;7.17;3.70;;;;;;;;;;5072736;28;20506;-78
2022/08/06 07:17:32;;;;;;;11.83;4.57;;;;;;;;;;5072584;28;20459;-77
2022/08/06 07:20:00;;;;;;;7.40;3.83;;;;;;;;;;5072463;28;20435;-75
2022/08/06 07:22:27;;;;;;;7.67;3.97;;;;;;;;;;5072767;28;20467;-76
2022/08/06 07:24:56;;;;;;;13.43;3.20;;;;;;;;;;5072928;28;20530;-76
2022/08/06 07:27:23;;;;;;;12.17;3.73;;;;;;;;;;5072743;28;20928;-76
2022/08/06 07:29:49;;;;;;;9.20;3.47;;;;;;;;;;5074157;28;20393;-75
2022/08/06 07:32:16;;;;;;;8.60;3.37;;;;;;;;;;5076576;28;20469;-75
2022/08/06 07:34:43;;;;;;;5.50;3.57;;;;;;;;;;5076370;28;20412;-75
2022/08/06 07:37:10;;;;;;;8.03;4.17;;;;;;;;;;5076347;28;20849;-76
2022/08/06 07:39:38;;;;;;;9.60;3.50;;;;;;;;;;5075702;28;20390;-75
2022/08/06 07:42:08;;;;;;;9.63;2.70;;;;;;;;;;5076270;28;20465;-76
2022/08/06 07:44:36;;;;;;;8.03;3.20;;;;;;;;;;5076193;28;20923;-76
2022/08/06 07:47:03;;;;;;;7.37;3.13;;;;;;;;;;5076196;28;20370;-76
2022/08/06 07:49:35;;;;;;;5.70;1.70;;;;;;;;;;5075905;28;20412;-76
2022/08/06 07:52:02;;;;;;;10.70;2.40;;;;;;;;;;5076010;28;20414;-75
2022/08/06 07:54:30;;;;;;;6.03;2.60;;;;;;;;;;5076066;28;20452;-75
2022/08/06 07:56:57;;;;;;;7.43;2.33;;;;;;;;;;5076078;28;20412;-76
2022/08/06 07:59:24;;;;;;;6.93;2.40;;;;;;;;;;5076057;28;20415;-76
2022/08/06 08:01:50;;;;;;;5.87;1.43;;;;;;;;;;5075395;28;20449;-75
2022/08/06 08:07:02;;;;;;;5.80;1.50;;;;;;;;;;5075577;28;20411;-76
2022/08/06 08:09:29;;;;;;;3.80;1.40;;;;;;;;;;5075202;28;20779;-74
2022/08/06 08:11:56;;;;;;;4.37;1.47;;;;;;;;;;5074811;28;20428;-75
2022/08/06 08:14:23;;;;;;;2.67;1.90;;;;;;;;;;5075904;28;20448;-77
2022/08/06 08:16:50;;;;;;;5.07;1.30;;;;;;;;;;5075390;28;20406;-75
2022/08/06 08:19:23;;;;;;;1.60;1.10;;;;;;;;;;5075295;28;20536;-75
2022/08/06 08:21:50;;;;;;;1.10;0.70;;;;;;;;;;5074456;28;20558;-76
2022/08/06 08:24:16;;;;;;;1.37;1.03;;;;;;;;;;5074751;28;20403;-76
2022/08/06 08:26:42;;;;;;;4.20;1.40;;;;;;;;;;5057107;28;20423;-78
2022/08/06 08:29:09;;;;;;;2.07;1.20;;;;;;;;;;5075008;28;20747;-76
2022/08/06 08:31:35;;;;;;;3.77;1.37;;;;;;;;;;5074473;28;20443;-75
2022/08/06 08:34:01;;;;;;;4.50;1.60;;;;;;;;;;5074550;28;20398;-75
2022/08/06 08:36:27;;;;;;;1.80;1.10;;;;;;;;;;5075023;28;20970;-75
2022/08/06 08:38:57;;;;;;;2.10;1.17;;;;;;;;;;5075031;28;20421;-75
2022/08/06 08:41:26;;;;;;;3.63;1.27;;;;;;;;;;5074224;28;20514;-76
2022/08/06 08:44:06;;;;;;;2.43;1.67;;;;;;;;;;5074837;28;20486;-77
2022/08/06 08:46:37;;;;;;;3.77;1.37;;;;;;;;;;5074716;28;20393;-78
2022/08/06 08:49:04;;;;;;;2.13;1.53;;;;;;;;;;5074797;28;20404;-78
2022/08/06 08:51:32;;;;;;;3.33;1.40;;;;;;;;;;5074137;28;20430;-78
2022/08/06 08:54:00;;;;;;;3.87;1.80;;;;;;;;;;5079621;28;20415;-78
2022/08/06 08:56:26;;;;;;;6.50;2.40;;;;;;;;;;5079634;28;20404;-77
2022/08/06 08:58:52;;;;;;;4.70;1.73;;;;;;;;;;5074362;28;20457;-78
2022/08/06 09:01:18;;;;;;;5.30;1.40;;;;;;;;;;5073915;28;20454;-77
2022/08/06 09:03:45;;;;;;;3.07;1.10;;;;;;;;;;5074284;28;20404;-77
2022/08/06 09:06:12;;;;;;;4.20;1.47;;;;;;;;;;5074164;28;20408;-79
2022/08/06 09:08:38;;;;;;;2.50;1.40;;;;;;;;;;5072785;28;20411;-77
2022/08/06 09:11:04;;;;;;;2.17;1.20;;;;;;;;;;5073784;28;20459;-78
2022/08/06 09:13:30;;;;;;;2.90;1.40;;;;;;;;;;5074124;28;20424;-78
2022/08/06 09:15:57;;;;;;;1.93;0.70;;;;;;;;;;5074032;28;20431;-78
2022/08/06 09:18:25;;;;;;;3.10;1.10;;;;;;;;;;5072541;28;20419;-77
2022/08/06 09:20:51;;;;;;;3.00;1.30;;;;;;;;;;5073472;28;20435;-77
2022/08/06 09:23:17;;;;;;;4.73;1.33;;;;;;;;;;5073830;28;20505;-79
2022/08/06 09:25:47;;;;;;;2.77;1.20;;;;;;;;;;5074106;28;20418;-77
2022/08/06 09:28:32;;;;;;;1.70;1.03;;;;;;;;;;5073821;28;20884;-79
2022/08/06 09:30:59;;;;;;;2.03;1.20;;;;;;;;;;5073493;28;20435;-78
2022/08/06 09:33:25;;;;;;;2.63;1.20;;;;;;;;;;5074042;28;20447;-79
2022/08/06 09:35:59;;;;;;;2.33;1.20;;;;;;;;;;5073730;28;20403;-79
2022/08/06 09:38:25;;;;;;;3.67;1.00;;;;;;;;;;5073565;28;20408;-78
2022/08/06 09:41:07;;;;;;;4.30;1.10;;;;;;;;;;5073248;28;20915;-77
2022/08/06 09:43:34;;;;;;;4.23;1.47;;;;;;;;;;5073248;28;20512;-79
2022/08/06 09:46:00;;;;;;;1.73;0.87;;;;;;;;;;5073577;28;20490;-78
2022/08/06 09:48:26;;;;;;;2.60;1.10;;;;;;;;;;5073296;28;20438;-78
2022/08/06 09:50:52;;;;;;;3.20;0.93;;;;;;;;;;5073096;28;20515;-78
2022/08/06 09:53:21;;;;;;;5.17;1.20;;;;;;;;;;5072551;28;20418;-78
2022/08/06 09:55:47;;;;;;;1.80;0.80;;;;;;;;;;5073257;28;20419;-76
2022/08/06 09:58:13;;;;;;;1.77;0.80;;;;;;;;;;5073329;28;20552;-79
2022/08/06 10:00:39;;;;;;;1.10;0.70;;;;;;;;;;5072464;28;20450;-79
2022/08/06 10:03:07;;;;;;;2.03;0.73;;;;;;;;;;5073134;28;20834;-77
2022/08/06 10:05:33;;;;;;;1.00;0.70;;;;;;;;;;5073077;28;20416;-78
2022/08/06 10:08:10;;;;;;;0.93;0.60;;;;;;;;;;5073116;28;20450;-79
2022/08/06 10:10:43;;;;;;;1.17;0.57;;;;;;;;;;5072437;28;20463;-77
2022/08/06 10:13:15;;;;;;;0.80;0.60;;;;;;;;;;5073091;28;20775;-80
2022/08/06 10:15:42;;;;;;;1.20;0.77;;;;;;;;;;5071467;28;20419;-76
2022/08/06 10:18:08;;;;;;;1.83;0.67;;;;;;;;;;5072885;28;20419;-77
2022/08/06 10:20:34;;;;;;;2.00;1.20;;;;;;;;;;5070980;28;20439;-79
2022/08/06 10:23:00;;;;;;;1.57;0.70;;;;;;;;;;5072648;28;20459;-77
2022/08/06 10:25:29;;;;;;;2.60;0.60;;;;;;;;;;5054975;28;20896;-76
2022/08/06 10:27:56;;;;;;;1.70;0.80;;;;;;;;;;5072776;28;20415;-76
2022/08/06 10:30:22;;;;;;;1.00;0.60;;;;;;;;;;5072377;28;20525;-77
2022/08/06 10:32:56;;;;;;;1.37;0.70;;;;;;;;;;5072508;28;20441;-77
2022/08/06 10:35:22;;;;;;;1.77;0.70;;;;;;;;;;5072800;28;20444;-77
2022/08/06 10:37:58;;;;;;;1.80;1.00;;;;;;;;;;5072603;28;20411;-77
2022/08/06 10:40:24;;;;;;;1.50;0.80;;;;;;;;;;5072219;28;20477;-77
2022/08/06 10:42:52;;;;;;;1.73;0.80;;;;;;;;;;5072659;28;20467;-78
2022/08/06 10:45:18;;;;;;;2.30;0.70;;;;;;;;;;5072592;28;20465;-78
2022/08/06 10:47:45;;;;;;;1.20;0.60;;;;;;;;;;5073855;28;20735;-78
2022/08/06 10:50:12;;;;;;;1.93;0.83;;;;;;;;;;5089804;28;20431;-77
2022/08/06 10:52:39;;;;;;;1.87;0.60;;;;;;;;;;5086024;28;20479;-77
2022/08/06 10:55:06;;;;;;;3.03;0.83;;;;;;;;;;5092605;28;20417;-77
2022/08/06 10:57:32;;;;;;;1.60;0.87;;;;;;;;;;5092685;28;20692;-76
2022/08/06 10:59:59;;;;;;;0.80;0.60;;;;;;;;;;5092725;28;20443;-75
2022/08/06 11:02:44;;;;;;;2.23;0.60;;;;;;;;;;5091756;28;21113;-75
2022/08/06 11:05:14;;;;;;;3.00;0.87;;;;;;;;;;5097190;28;20402;-76
2022/08/06 11:07:46;;;;;;;2.50;0.73;;;;;;;;;;5093594;28;20431;-76
2022/08/06 11:10:12;;;;;;;2.40;0.80;;;;;;;;;;5076492;28;20452;-74
2022/08/06 11:12:50;;;;;;;1.37;0.70;;;;;;;;;;5076836;28;20407;-75
2022/08/06 11:15:16;;;;;;;1.90;0.90;;;;;;;;;;5083536;28;20426;-75
2022/08/06 11:17:46;;;;;;;1.93;0.90;;;;;;;;;;5097185;28;20827;-75
2022/08/06 11:20:31;;;;;;;2.20;0.80;;;;;;;;;;5096620;28;20426;-74
2022/08/06 11:22:57;;;;;;;2.67;1.10;;;;;;;;;;5096899;28;20462;-74
2022/08/06 11:25:40;;;;;;;2.27;1.00;;;;;;;;;;5096827;28;20838;-75
2022/08/06 11:28:07;;;;;;;3.37;1.13;;;;;;;;;;5096915;28;20395;-75
2022/08/06 11:30:37;;;;;;;2.80;1.10;;;;;;;;;;5096785;28;20426;-75
2022/08/06 11:33:03;;;;;;;1.33;1.13;;;;;;;;;;5095925;28;20432;-74
2022/08/06 11:35:35;;;;;;;7.10;2.13;;;;;;;;;;5096645;28;20415;-74
2022/08/06 11:38:01;;;;;;;2.60;1.20;;;;;;;;;;5096744;28;20418;-74
2022/08/06 11:40:28;;;;;;;4.80;1.97;;;;;;;;;;5096380;28;21211;-75
2022/08/06 11:42:54;;;;;;;4.20;1.87;;;;;;;;;;5097901;28;20458;-75
2022/08/06 11:45:20;;;;;;;1.73;0.77;;;;;;;;;;5096588;28;20452;-75
2022/08/06 11:48:05;;;;;;;2.10;0.80;;;;;;;;;;5096559;28;20448;-75
2022/08/06 11:50:31;;;;;;;2.20;1.00;;;;;;;;;;5096269;28;20551;-75
2022/08/06 11:52:57;;;;;;;2.53;2.30;;;;;;;;;;5094894;28;20903;-75
2022/08/06 11:55:23;;;;;;;1.10;1.00;;;;;;;;;;5096442;28;20422;-75
2022/08/06 11:57:50;;;;;;;1.50;0.80;;;;;;;;;;5096334;28;20407;-75
2022/08/06 12:00:17;;;;;;;1.23;0.53;;;;;;;;;;5095916;28;20434;-75
2022/08/06 12:02:49;;;;;;;1.20;0.60;;;;;;;;;;5096348;28;20458;-75
2022/08/06 12:05:15;;;;;;;1.63;0.70;;;;;;;;;;5096420;28;20995;-75
2022/08/06 12:07:44;;;;;;;0.70;0.60;;;;;;;;;;5095891;28;20399;-75
2022/08/06 12:10:10;;;;;;;2.97;0.70;;;;;;;;;;5095591;28;20518;-75
2022/08/06 12:12:45;;;;;;;1.40;0.77;;;;;;;;;;5095964;28;20411;-75
2022/08/06 12:15:19;;;;;;;3.07;0.60;;;;;;;;;;5095175;28;20508;-75
2022/08/06 12:17:57;;;;;;;1.53;0.70;;;;;;;;;;5095835;28;20763;-76
2022/08/06 12:20:34;;;;;;;2.40;0.80;;;;;;;;;;5095576;28;20512;-76
2022/08/06 12:23:01;;;;;;;1.57;0.80;;;;;;;;;;5095593;28;20473;-75
2022/08/06 12:25:33;;;;;;;1.00;0.53;;;;;;;;;;5095815;28;20407;-75
2022/08/06 12:27:59;;;;;;;1.07;0.70;;;;;;;;;;5095843;28;20403;-75
2022/08/06 12:30:25;;;;;;;1.10;0.70;;;;;;;;;;5095457;28;20426;-76
2022/08/06 12:33:00;;;;;;;3.53;1.03;;;;;;;;;;5095605;28;20407;-76
2022/08/06 12:35:27;;;;;;;2.63;1.10;;;;;;;;;;5095628;28;20414;-75
2022/08/06 12:37:54;;;;;;;1.13;0.57;;;;;;;;;;5095363;28;20411;-77
2022/08/06 12:40:23;;;;;;;1.03;0.60;;;;;;;;;;5095156;28;20442;-76
2022/08/06 12:42:49;;;;;;;1.00;0.70;;;;;;;;;;5095267;28;20455;-76
2022/08/06 12:45:20;;;;;;;4.90;1.03;;;;;;;;;;5095288;28;20750;-75
2022/08/06 12:47:57;;;;;;;1.10;0.70;;;;;;;;;;5095085;28;20391;-75
2022/08/06 12:50:23;;;;;;;2.10;0.70;;;;;;;;;;5095150;28;20457;-76
2022/08/06 12:53:06;;;;;;;1.73;0.83;;;;;;;;;;5095389;28;20419;-75
2022/08/06 12:55:33;;;;;;;1.80;0.93;;;;;;;;;;5095310;28;20477;-75
2022/08/06 12:58:00;;;;;;;1.80;0.63;;;;;;;;;;5095176;28;20411;-75
2022/08/06 13:00:27;;;;;;;0.70;0.60;;;;;;;;;;5094723;28;20453;-76
2022/08/06 13:02:57;;;;;;;1.17;0.60;;;;;;;;;;5095090;28;20447;-76
2022/08/06 13:05:26;;;;;;;1.00;0.63;;;;;;;;;;5094954;28;20490;-74
2022/08/06 13:07:56;;;;;;;1.23;0.70;;;;;;;;;;5094871;28;20433;-76
2022/08/06 13:10:22;;;;;;;1.30;0.70;;;;;;;;;;5094350;28;20438;-76
2022/08/06 13:12:56;;;;;;;1.27;0.60;;;;;;;;;;5094866;28;20435;-75
2022/08/06 13:15:22;;;;;;;1.73;0.50;;;;;;;;;;5094858;28;20833;-76
2022/08/06 13:18:02;;;;;;;1.30;0.80;;;;;;;;;;5094699;28;20425;-76
2022/08/06 13:20:41;;;;;;;0.80;0.60;;;;;;;;;;5094239;28;20442;-76
2022/08/06 13:23:08;;;;;;;1.77;0.60;;;;;;;;;;5094762;28;20839;-76
2022/08/06 13:25:42;;;;;;;1.70;0.60;;;;;;;;;;5094653;28;20414;-76
2022/08/06 13:28:12;;;;;;;3.30;0.57;;;;;;;;;;5094608;28;20406;-76
2022/08/06 13:30:38;;;;;;;0.93;0.60;;;;;;;;;;5094236;28;20431;-76
2022/08/06 13:33:15;;;;;;;1.37;0.80;;;;;;;;;;5094508;28;20460;-76
2022/08/06 13:35:41;;;;;;;1.03;0.70;;;;;;;;;;5094613;28;20533;-76
2022/08/06 13:38:09;;;;;;;1.30;0.70;;;;;;;;;;5094667;28;20990;-76
2022/08/06 13:40:43;;;;;;;1.77;0.90;;;;;;;;;;5095674;28;20435;-76
2022/08/06 13:43:09;;;;;;;1.20;0.73;;;;;;;;;;5094654;28;20462;-76
2022/08/06 13:45:36;;;;;;;0.90;0.70;;;;;;;;;;5094258;28;20413;-76
2022/08/06 13:48:03;;;;;;;1.17;0.70;;;;;;;;;;5094338;28;20412;-76
2022/08/06 13:50:29;;;;;;;1.27;0.70;;;;;;;;;;5093849;28;20828;-76
2022/08/06 13:52:55;;;;;;;3.23;0.70;;;;;;;;;;5094175;28;20410;-76
2022/08/06 13:55:23;;;;;;;2.30;0.73;;;;;;;;;;5094048;28;20469;-76
2022/08/06 13:57:49;;;;;;;2.63;0.90;;;;;;;;;;5094080;28;20415;-76
2022/08/06 14:00:15;;;;;;;1.47;0.60;;;;;;;;;;5092532;28;20454;-77
2022/08/06 14:02:41;;;;;;;2.30;0.83;;;;;;;;;;5093977;28;20473;-76
2022/08/06 14:05:07;;;;;;;1.73;0.93;;;;;;;;;;5094014;28;20407;-76
2022/08/06 14:07:33;;;;;;;2.07;0.80;;;;;;;;;;5093852;28;20433;-76
2022/08/06 14:09:59;;;;;;;1.10;0.60;;;;;;;;;;5093648;28;20881;-77
2022/08/06 14:12:25;;;;;;;1.53;0.90;;;;;;;;;;5093746;28;20429;-76
2022/08/06 14:14:51;;;;;;;1.40;0.80;;;;;;;;;;5093677;28;20415;-76
2022/08/06 14:17:18;;;;;;;2.27;0.80;;;;;;;;;;5093633;28;20411;-76
2022/08/06 14:19:44;;;;;;;1.80;0.70;;;;;;;;;;5093229;28;20501;-77
2022/08/06 14:22:10;;;;;;;1.10;0.60;;;;;;;;;;5093608;28;20515;-76
2022/08/06 14:24:36;;;;;;;1.63;0.80;;;;;;;;;;5093394;28;20502;-76
2022/08/06 14:27:03;;;;;;;1.57;0.83;;;;;;;;;;5093516;28;20411;-76
2022/08/06 14:29:29;;;;;;;1.00;0.60;;;;;;;;;;5093577;28;20818;-76
2022/08/06 14:31:55;;;;;;;1.47;0.70;;;;;;;;;;5093237;28;20434;-76
2022/08/06 14:34:21;;;;;;;0.93;0.67;;;;;;;;;;5093501;28;20417;-76
2022/08/06 14:36:47;;;;;;;6.53;0.77;;;;;;;;;;5093258;28;20411;-77
2022/08/06 14:39:13;;;;;;;4.20;0.60;;;;;;;;;;5093047;28;20453;-76
2022/08/06 14:47:09;;;;;;;1.00;0.73;;;;;;;;;;5093561;28;20456;-76
2022/08/06 14:49:35;;;;;;;2.73;0.83;;;;;;;;;;5092968;28;20399;-77
2022/08/06 14:52:02;;;;;;;1.53;0.73;;;;;;;;;;5093588;28;20460;-76
2022/08/06 14:54:28;;;;;;;0.90;0.70;;;;;;;;;;5093238;28;20415;-76
2022/08/06 14:56:54;;;;;;;1.53;0.70;;;;;;;;;;5093293;28;20527;-76
2022/08/06 14:59:25;;;;;;;0.90;0.60;;;;;;;;;;5093306;28;20418;-76